LOWWLOWL

Guest
Details From LOWW - Wien Schwechat
To LOWL - Linz Hoersching
Flight Number -
Tags decoded
Created
Modified
Stats Distance 103 nm / 190 km
Max Altitude 0 ft / 0 m
Waypoints 3
Social Downloads 0
Likes 0
Share VATSIM

Download

Looking for another format? Having issues loading an existing format? Contact us
Advertisement - Login to hide

Notes

Requested: LOWW STO LOWL

Route

LOWW STO LOWL

ID Type Via Altitude Latitude Longitude Leg Dist Tot Dist Heading (true) Name
O LOWW APT - 0 ft / 0 m 48.11007˚ 16.56964˚ - 0 nm - Wien Schwechat
STO VOR - 0 ft / 0 m 48.41714˚ 16.01859˚ 28 nm 28 nm 310° / 310° STOCKERAU VOR-DME
O LOWL APT - 0 ft / 0 m 48.23322˚ 14.18751˚ 73 nm 102 nm 262° / 261° Linz Hoersching

Altitude Profile

Advertisement - Login to hide

LOWW

Details ICAO LOWW (VIE)
Name Wien Schwechat
Region Austria
Timezone Europe/Vienna (UTC+1.0)
Stats Elevation 600 ft / 183 m (AMSL)
Location 48.110068° 16.569637°
Runways 2
Magnetic Variation 4.256° E

METAR

LOWW 130120Z 29005KT 9999 FEW032 BKN065 BKN100 04/M00 Q1018 NOSIG

Decode

TAF

TAF TAF LOWW 122315Z 1300/1406 31010KT CAVOK TX06/1312Z TN01/1406Z BECMG 1312/1314 15007KT BECMG 1318/1320 15012KT

Decode

Departure Runways

ID Width Length Bearing (true) Bearing (mag) Surface Threshold Offset Overrun Length
11 148 ft / 45 m 11,457 ft / 3,492 m 115.99° 111.73° Asphalt 0 ft / 0 m 0 ft / 0 m
16 148 ft / 45 m 11,811 ft / 3,600 m 164.23° 159.97° Asphalt 0 ft / 0 m 33 ft / 10 m
29 148 ft / 45 m 11,457 ft / 3,492 m 296.03° 291.77° Asphalt 0 ft / 0 m 0 ft / 0 m
34 148 ft / 45 m 11,811 ft / 3,600 m 344.24° 339.98° Asphalt 0 ft / 0 m 0 ft / 0 m

LOWL

Details ICAO LOWL (LNZ)
Name Linz Hoersching
Region Austria
Timezone Europe/Vienna (UTC+1.0)
Stats Elevation 978 ft / 298 m (AMSL)
Location 48.233219° 14.187513°
Runways 1
Magnetic Variation 3.725° E

METAR

LOWL 130120Z AUTO 25006KT 9999 FEW042 SCT048 BKN130 01/M01 Q1019

Decode

TAF

TAF LOWL 122315Z 1300/1324 25005KT 8000 FEW025 BKN120 TX03/1313Z TNM01/1322Z PROB30 1304/1308 VRB02KT 4000 BR BKN008 BECMG 1308/1310 08005KT CAVOK BECMG 1319/1322 VRB02KT 8000 SCT040 BKN070

Decode

Destination Runways

ID Width Length Bearing (true) Bearing (mag) Surface Threshold Offset Overrun Length
09 197 ft / 60 m 9,802 ft / 2,988 m 86.49° 82.76° Asphalt 820 ft / 250 m 0 ft / 0 m
27 197 ft / 60 m 9,802 ft / 2,988 m 266.52° 262.79° Asphalt 492 ft / 150 m 0 ft / 0 m

Approach Navaids

Runway Type Ident Frequency Range Bearing (true) Bearing (mag) Slope Elevation
09 Localiser OEM 110.55 MHz 18 nm / 33 km 86.63° 82.91° - 955 ft / 291 m (AMSL)
09 Glidescope OEM 110.55 MHz 12 nm / 22 km 86.00° 82.27° 3.00° 964 ft / 294 m (AMSL)
09 DME OEM 110.55 MHz 18 nm / 33 km - - - 964 ft / 294 m (AMSL)
27 Localiser OEL 109.30 MHz 18 nm / 33 km 266.76° 263.04° - 978 ft / 298 m (AMSL)
27 Glidescope OEL 109.30 MHz 10 nm / 19 km 266.50° 262.77° 3.00° 996 ft / 304 m (AMSL)
27 DME OEL 109.30 MHz 18 nm / 33 km - - - 996 ft / 304 m (AMSL)

Popular Alternatives